sensor_id;sensor_type;location;lat;lon;timestamp;pressure;altitude;pressure_sealevel;temperature;humidity
34205;BME280;20471;49.680;20.074;2023-02-19T00:01:50;96880.58;;;6.63;76.42
34205;BME280;20471;49.680;20.074;2023-02-19T00:04:20;96881.83;;;6.60;76.54
34205;BME280;20471;49.680;20.074;2023-02-19T00:06:50;96883.27;;;6.60;76.59
34205;BME280;20471;49.680;20.074;2023-02-19T00:09:18;96881.54;;;6.59;76.76
34205;BME280;20471;49.680;20.074;2023-02-19T00:11:47;96881.98;;;6.59;76.75
34205;BME280;20471;49.680;20.074;2023-02-19T00:14:18;96881.13;;;6.60;76.72
34205;BME280;20471;49.680;20.074;2023-02-19T00:16:47;96884.30;;;6.60;76.61
34205;BME280;20471;49.680;20.074;2023-02-19T00:19:18;96881.23;;;6.62;76.63
34205;BME280;20471;49.680;20.074;2023-02-19T00:21:49;96887.63;;;6.63;76.65
34205;BME280;20471;49.680;20.074;2023-02-19T00:24:18;96888.02;;;6.64;76.65
34205;BME280;20471;49.680;20.074;2023-02-19T00:26:46;96886.99;;;6.64;76.61
34205;BME280;20471;49.680;20.074;2023-02-19T00:29:18;96887.45;;;6.63;76.48
34205;BME280;20471;49.680;20.074;2023-02-19T00:31:46;96887.71;;;6.63;76.49
34205;BME280;20471;49.680;20.074;2023-02-19T00:34:14;96888.38;;;6.63;76.52
34205;BME280;20471;49.680;20.074;2023-02-19T00:36:43;96888.36;;;6.64;76.38
34205;BME280;20471;49.680;20.074;2023-02-19T00:39:15;96889.71;;;6.61;76.32
34205;BME280;20471;49.680;20.074;2023-02-19T00:41:44;96894.12;;;6.55;76.40
34205;BME280;20471;49.680;20.074;2023-02-19T00:44:13;96900.15;;;6.51;76.23
34205;BME280;20471;49.680;20.074;2023-02-19T00:46:44;96901.27;;;6.51;76.37
34205;BME280;20471;49.680;20.074;2023-02-19T00:49:21;96906.70;;;6.49;76.53
34205;BME280;20471;49.680;20.074;2023-02-19T00:51:51;96906.33;;;6.44;76.74
34205;BME280;20471;49.680;20.074;2023-02-19T00:54:20;96908.13;;;6.43;76.61
34205;BME280;20471;49.680;20.074;2023-02-19T00:56:49;96905.25;;;6.43;76.81
34205;BME280;20471;49.680;20.074;2023-02-19T00:59:17;96909.09;;;6.44;76.82
34205;BME280;20471;49.680;20.074;2023-02-19T01:01:46;96905.36;;;6.42;76.73
34205;BME280;20471;49.680;20.074;2023-02-19T01:04:15;96906.52;;;6.40;76.73
34205;BME280;20471;49.680;20.074;2023-02-19T01:06:43;96906.39;;;6.41;77.01
34205;BME280;20471;49.680;20.074;2023-02-19T01:09:11;96905.30;;;6.41;77.00
34205;BME280;20471;49.680;20.074;2023-02-19T01:11:39;96904.57;;;6.40;76.99
34205;BME280;20471;49.680;20.074;2023-02-19T01:14:08;96903.58;;;6.41;76.98
34205;BME280;20471;49.680;20.074;2023-02-19T01:16:36;96901.91;;;6.37;76.87
34205;BME280;20471;49.680;20.074;2023-02-19T01:19:05;96900.16;;;6.34;76.83
34205;BME280;20471;49.680;20.074;2023-02-19T01:21:33;96902.02;;;6.34;76.99
34205;BME280;20471;49.680;20.074;2023-02-19T01:24:01;96896.71;;;6.35;76.91
34205;BME280;20471;49.680;20.074;2023-02-19T01:26:30;96892.89;;;6.33;76.86
34205;BME280;20471;49.680;20.074;2023-02-19T01:29:03;96895.89;;;6.31;76.91
34205;BME280;20471;49.680;20.074;2023-02-19T01:31:31;96893.52;;;6.30;76.79
34205;BME280;20471;49.680;20.074;2023-02-19T01:34:01;96889.85;;;6.30;76.94
34205;BME280;20471;49.680;20.074;2023-02-19T01:36:32;96881.29;;;6.27;77.15
34205;BME280;20471;49.680;20.074;2023-02-19T01:39:01;96878.80;;;6.26;77.12
34205;BME280;20471;49.680;20.074;2023-02-19T01:41:37;96869.07;;;6.26;77.27
34205;BME280;20471;49.680;20.074;2023-02-19T01:45:10;96861.47;;;6.24;77.03
34205;BME280;20471;49.680;20.074;2023-02-19T01:46:55;96859.92;;;6.22;77.24
34205;BME280;20471;49.680;20.074;2023-02-19T01:49:29;96863.02;;;6.22;77.42
34205;BME280;20471;49.680;20.074;2023-02-19T01:52:06;96858.79;;;6.24;77.43
34205;BME280;20471;49.680;20.074;2023-02-19T01:54:39;96851.95;;;6.26;77.29
34205;BME280;20471;49.680;20.074;2023-02-19T01:57:13;96848.53;;;6.25;77.40
34205;BME280;20471;49.680;20.074;2023-02-19T01:59:44;96846.03;;;6.22;77.43
34205;BME280;20471;49.680;20.074;2023-02-19T02:02:13;96846.81;;;6.21;77.60
34205;BME280;20471;49.680;20.074;2023-02-19T02:04:42;96840.73;;;6.20;77.65
34205;BME280;20471;49.680;20.074;2023-02-19T02:07:10;96838.98;;;6.17;77.69
34205;BME280;20471;49.680;20.074;2023-02-19T02:09:52;96835.41;;;6.16;77.93
34205;BME280;20471;49.680;20.074;2023-02-19T02:12:38;96827.77;;;6.09;77.91
34205;BME280;20471;49.680;20.074;2023-02-19T02:15:07;96822.88;;;6.03;78.04
34205;BME280;20471;49.680;20.074;2023-02-19T02:17:52;96822.00;;;6.00;77.88
34205;BME280;20471;49.680;20.074;2023-02-19T02:20:34;96818.83;;;6.00;77.96
34205;BME280;20471;49.680;20.074;2023-02-19T02:32:15;96814.61;;;5.86;78.63
34205;BME280;20471;49.680;20.074;2023-02-19T02:34:48;96820.98;;;5.83;78.70
34205;BME280;20471;49.680;20.074;2023-02-19T02:37:20;96824.60;;;5.83;78.86
34205;BME280;20471;49.680;20.074;2023-02-19T02:39:51;96825.02;;;5.85;78.92
34205;BME280;20471;49.680;20.074;2023-02-19T02:42:20;96819.45;;;5.87;79.00
34205;BME280;20471;49.680;20.074;2023-02-19T02:44:56;96815.17;;;5.91;78.95
34205;BME280;20471;49.680;20.074;2023-02-19T02:47:49;96810.29;;;5.94;78.98
34205;BME280;20471;49.680;20.074;2023-02-19T02:50:24;96808.65;;;5.96;79.13
34205;BME280;20471;49.680;20.074;2023-02-19T02:53:01;96802.48;;;5.98;79.10
34205;BME280;20471;49.680;20.074;2023-02-19T02:55:50;96792.27;;;5.98;79.17
34205;BME280;20471;49.680;20.074;2023-02-19T02:58:20;96794.45;;;5.98;79.13
34205;BME280;20471;49.680;20.074;2023-02-19T03:00:58;96793.05;;;5.98;79.22
34205;BME280;20471;49.680;20.074;2023-02-19T03:03:46;96792.50;;;5.97;79.28
34205;BME280;20471;49.680;20.074;2023-02-19T03:06:17;96790.20;;;5.98;79.16
34205;BME280;20471;49.680;20.074;2023-02-19T03:11:20;96779.98;;;5.97;79.27
34205;BME280;20471;49.680;20.074;2023-02-19T03:14:11;96785.23;;;5.96;79.18
34205;BME280;20471;49.680;20.074;2023-02-19T03:17:08;96784.65;;;5.95;79.28
34205;BME280;20471;49.680;20.074;2023-02-19T03:19:59;96779.58;;;5.94;79.30
34205;BME280;20471;49.680;20.074;2023-02-19T03:22:32;96774.88;;;5.91;79.34
34205;BME280;20471;49.680;20.074;2023-02-19T03:25:08;96773.85;;;5.90;79.48
34205;BME280;20471;49.680;20.074;2023-02-19T03:27:56;96769.35;;;5.92;79.48
34205;BME280;20471;49.680;20.074;2023-02-19T03:30:31;96762.48;;;5.94;79.48
34205;BME280;20471;49.680;20.074;2023-02-19T03:33:10;96753.13;;;5.96;79.35
34205;BME280;20471;49.680;20.074;2023-02-19T03:35:46;96751.95;;;5.97;79.46
34205;BME280;20471;49.680;20.074;2023-02-19T03:38:21;96749.47;;;5.96;79.42
34205;BME280;20471;49.680;20.074;2023-02-19T03:40:57;96754.74;;;5.97;79.64
34205;BME280;20471;49.680;20.074;2023-02-19T03:49:28;96747.80;;;5.98;79.61
34205;BME280;20471;49.680;20.074;2023-02-19T03:52:17;96747.57;;;5.96;79.68
34205;BME280;20471;49.680;20.074;2023-02-19T03:57:50;96736.26;;;5.91;79.75
34205;BME280;20471;49.680;20.074;2023-02-19T04:00:26;96737.30;;;5.87;79.61
34205;BME280;20471;49.680;20.074;2023-02-19T04:03:14;96742.36;;;5.84;79.59
34205;BME280;20471;49.680;20.074;2023-02-19T04:05:47;96739.38;;;5.82;79.51
34205;BME280;20471;49.680;20.074;2023-02-19T04:08:19;96742.19;;;5.82;79.50
34205;BME280;20471;49.680;20.074;2023-02-19T04:10:49;96734.45;;;5.84;79.48
34205;BME280;20471;49.680;20.074;2023-02-19T04:13:25;96736.06;;;5.85;79.53
34205;BME280;20471;49.680;20.074;2023-02-19T04:16:00;96736.16;;;5.86;79.60
34205;BME280;20471;49.680;20.074;2023-02-19T04:18:32;96735.09;;;5.86;79.67
34205;BME280;20471;49.680;20.074;2023-02-19T04:21:03;96732.64;;;5.87;79.61
34205;BME280;20471;49.680;20.074;2023-02-19T04:23:37;96732.73;;;5.85;79.62
34205;BME280;20471;49.680;20.074;2023-02-19T04:26:07;96730.63;;;5.85;79.53
34205;BME280;20471;49.680;20.074;2023-02-19T04:28:37;96725.55;;;5.84;79.57
34205;BME280;20471;49.680;20.074;2023-02-19T04:31:05;96716.95;;;5.85;79.77
34205;BME280;20471;49.680;20.074;2023-02-19T04:33:34;96716.91;;;5.89;79.70
34205;BME280;20471;49.680;20.074;2023-02-19T04:36:02;96712.77;;;5.90;79.75
34205;BME280;20471;49.680;20.074;2023-02-19T04:38:30;96711.66;;;5.89;79.56
34205;BME280;20471;49.680;20.074;2023-02-19T04:40:58;96705.38;;;5.87;79.62
34205;BME280;20471;49.680;20.074;2023-02-19T04:43:26;96701.08;;;5.84;79.67
34205;BME280;20471;49.680;20.074;2023-02-19T04:45:59;96694.56;;;5.83;79.62
34205;BME280;20471;49.680;20.074;2023-02-19T04:48:28;96686.31;;;5.81;79.61
34205;BME280;20471;49.680;20.074;2023-02-19T04:50:56;96685.45;;;5.78;79.61
34205;BME280;20471;49.680;20.074;2023-02-19T04:53:24;96687.25;;;5.76;79.66
34205;BME280;20471;49.680;20.074;2023-02-19T04:55:53;96687.83;;;5.72;79.70
34205;BME280;20471;49.680;20.074;2023-02-19T04:58:21;96685.91;;;5.66;79.69
34205;BME280;20471;49.680;20.074;2023-02-19T05:00:52;96684.23;;;5.61;79.90
34205;BME280;20471;49.680;20.074;2023-02-19T05:03:21;96680.23;;;5.60;79.68
34205;BME280;20471;49.680;20.074;2023-02-19T05:05:49;96674.45;;;5.59;79.75
34205;BME280;20471;49.680;20.074;2023-02-19T05:08:17;96677.40;;;5.57;79.70
34205;BME280;20471;49.680;20.074;2023-02-19T05:10:46;96675.52;;;5.55;79.78
34205;BME280;20471;49.680;20.074;2023-02-19T05:13:14;96680.33;;;5.55;79.83
34205;BME280;20471;49.680;20.074;2023-02-19T05:15:53;96673.05;;;5.50;79.82
34205;BME280;20471;49.680;20.074;2023-02-19T05:18:21;96666.30;;;5.42;79.78
34205;BME280;20471;49.680;20.074;2023-02-19T05:20:50;96667.88;;;5.38;79.79
34205;BME280;20471;49.680;20.074;2023-02-19T05:23:19;96663.83;;;5.35;79.92
34205;BME280;20471;49.680;20.074;2023-02-19T05:25:47;96663.61;;;5.34;80.07
34205;BME280;20471;49.680;20.074;2023-02-19T05:28:15;96662.02;;;5.28;80.18
34205;BME280;20471;49.680;20.074;2023-02-19T05:30:44;96660.83;;;5.24;80.32
34205;BME280;20471;49.680;20.074;2023-02-19T05:33:13;96655.03;;;5.20;80.44
34205;BME280;20471;49.680;20.074;2023-02-19T05:35:43;96646.93;;;5.21;80.58
34205;BME280;20471;49.680;20.074;2023-02-19T05:38:13;96650.34;;;5.25;80.59
34205;BME280;20471;49.680;20.074;2023-02-19T05:40:43;96646.01;;;5.28;80.48
34205;BME280;20471;49.680;20.074;2023-02-19T05:43:11;96640.58;;;5.30;80.62
34205;BME280;20471;49.680;20.074;2023-02-19T05:45:40;96639.58;;;5.32;80.53
34205;BME280;20471;49.680;20.074;2023-02-19T05:48:09;96642.77;;;5.34;80.44
34205;BME280;20471;49.680;20.074;2023-02-19T05:50:38;96644.02;;;5.35;80.54
34205;BME280;20471;49.680;20.074;2023-02-19T05:53:06;96646.54;;;5.36;80.60
34205;BME280;20471;49.680;20.074;2023-02-19T05:55:34;96641.95;;;5.34;80.49
34205;BME280;20471;49.680;20.074;2023-02-19T05:58:03;96630.77;;;5.31;80.51
34205;BME280;20471;49.680;20.074;2023-02-19T06:00:32;96631.73;;;5.28;80.63
34205;BME280;20471;49.680;20.074;2023-02-19T06:03:00;96635.11;;;5.30;80.71
34205;BME280;20471;49.680;20.074;2023-02-19T06:05:29;96638.93;;;5.29;80.75
34205;BME280;20471;49.680;20.074;2023-02-19T06:07:57;96638.46;;;5.27;80.74
34205;BME280;20471;49.680;20.074;2023-02-19T06:10:25;96640.80;;;5.26;80.79
34205;BME280;20471;49.680;20.074;2023-02-19T06:12:54;96640.47;;;5.26;80.92
34205;BME280;20471;49.680;20.074;2023-02-19T06:15:22;96649.41;;;5.28;80.99
34205;BME280;20471;49.680;20.074;2023-02-19T06:17:50;96652.28;;;5.33;80.96
34205;BME280;20471;49.680;20.074;2023-02-19T06:20:18;96660.55;;;5.41;80.91
34205;BME280;20471;49.680;20.074;2023-02-19T06:22:49;96664.64;;;5.47;80.92
34205;BME280;20471;49.680;20.074;2023-02-19T06:25:18;96657.46;;;5.52;80.85
34205;BME280;20471;49.680;20.074;2023-02-19T06:27:46;96658.48;;;5.57;80.77
34205;BME280;20471;49.680;20.074;2023-02-19T06:30:14;96656.56;;;5.63;80.70
34205;BME280;20471;49.680;20.074;2023-02-19T06:32:42;96653.83;;;5.67;80.61
34205;BME280;20471;49.680;20.074;2023-02-19T06:35:10;96653.19;;;5.72;80.42
34205;BME280;20471;49.680;20.074;2023-02-19T06:37:38;96650.46;;;5.78;80.39
34205;BME280;20471;49.680;20.074;2023-02-19T06:40:07;96655.06;;;5.85;80.17
34205;BME280;20471;49.680;20.074;2023-02-19T06:42:36;96652.81;;;5.91;80.11
34205;BME280;20471;49.680;20.074;2023-02-19T06:45:04;96646.52;;;5.97;80.17
34205;BME280;20471;49.680;20.074;2023-02-19T06:47:32;96643.29;;;6.01;79.92
34205;BME280;20471;49.680;20.074;2023-02-19T06:50:01;96641.89;;;6.05;79.76
34205;BME280;20471;49.680;20.074;2023-02-19T06:52:29;96640.79;;;6.09;79.83
34205;BME280;20471;49.680;20.074;2023-02-19T06:54:57;96639.58;;;6.13;79.75
34205;BME280;20471;49.680;20.074;2023-02-19T06:57:25;96636.36;;;6.17;79.67
34205;BME280;20471;49.680;20.074;2023-02-19T06:59:53;96634.89;;;6.22;79.58
34205;BME280;20471;49.680;20.074;2023-02-19T07:02:21;96640.64;;;6.26;79.57
34205;BME280;20471;49.680;20.074;2023-02-19T07:04:50;96648.05;;;6.29;79.42
34205;BME280;20471;49.680;20.074;2023-02-19T07:07:18;96639.16;;;6.31;79.37
34205;BME280;20471;49.680;20.074;2023-02-19T07:09:46;96645.60;;;6.34;79.27
34205;BME280;20471;49.680;20.074;2023-02-19T07:12:14;96648.73;;;6.36;79.29
34205;BME280;20471;49.680;20.074;2023-02-19T07:14:42;96641.98;;;6.37;79.30
34205;BME280;20471;49.680;20.074;2023-02-19T07:17:10;96636.80;;;6.39;79.19
34205;BME280;20471;49.680;20.074;2023-02-19T07:19:39;96640.28;;;6.43;79.13
34205;BME280;20471;49.680;20.074;2023-02-19T07:22:07;96635.88;;;6.45;79.19
34205;BME280;20471;49.680;20.074;2023-02-19T07:24:35;96632.47;;;6.48;79.18
34205;BME280;20471;49.680;20.074;2023-02-19T07:27:03;96633.29;;;6.51;79.11
34205;BME280;20471;49.680;20.074;2023-02-19T07:29:31;96635.31;;;6.54;79.00
34205;BME280;20471;49.680;20.074;2023-02-19T07:31:59;96632.88;;;6.58;78.99
34205;BME280;20471;49.680;20.074;2023-02-19T07:34:27;96630.00;;;6.61;78.83
34205;BME280;20471;49.680;20.074;2023-02-19T07:36:55;96627.77;;;6.64;78.84
34205;BME280;20471;49.680;20.074;2023-02-19T07:39:23;96629.05;;;6.68;78.84
34205;BME280;20471;49.680;20.074;2023-02-19T07:41:52;96630.45;;;6.70;78.70
34205;BME280;20471;49.680;20.074;2023-02-19T07:44:20;96627.04;;;6.74;78.64
34205;BME280;20471;49.680;20.074;2023-02-19T07:46:48;96624.42;;;6.79;78.70
34205;BME280;20471;49.680;20.074;2023-02-19T07:49:16;96623.94;;;6.83;78.70
34205;BME280;20471;49.680;20.074;2023-02-19T07:51:44;96627.74;;;6.85;78.83
34205;BME280;20471;49.680;20.074;2023-02-19T07:54:13;96630.70;;;6.88;78.75
34205;BME280;20471;49.680;20.074;2023-02-19T07:56:41;96630.37;;;6.91;78.49
34205;BME280;20471;49.680;20.074;2023-02-19T07:59:09;96630.54;;;6.94;78.40
34205;BME280;20471;49.680;20.074;2023-02-19T08:01:37;96627.16;;;6.96;78.39
34205;BME280;20471;49.680;20.074;2023-02-19T08:04:23;96631.77;;;6.99;78.44
34205;BME280;20471;49.680;20.074;2023-02-19T08:06:51;96634.41;;;7.02;78.46
34205;BME280;20471;49.680;20.074;2023-02-19T08:09:20;96630.56;;;7.04;78.31
34205;BME280;20471;49.680;20.074;2023-02-19T08:11:48;96635.20;;;7.07;78.25
34205;BME280;20471;49.680;20.074;2023-02-19T08:14:33;96635.89;;;7.07;78.11
34205;BME280;20471;49.680;20.074;2023-02-19T08:17:01;96634.16;;;7.08;78.04
34205;BME280;20471;49.680;20.074;2023-02-19T08:19:30;96628.71;;;7.07;78.01
34205;BME280;20471;49.680;20.074;2023-02-19T08:21:58;96633.91;;;7.07;77.99
34205;BME280;20471;49.680;20.074;2023-02-19T08:24:26;96636.92;;;7.06;77.97
34205;BME280;20471;49.680;20.074;2023-02-19T08:26:54;96632.71;;;7.05;78.06
34205;BME280;20471;49.680;20.074;2023-02-19T08:29:22;96632.14;;;7.04;77.97
34205;BME280;20471;49.680;20.074;2023-02-19T08:31:50;96635.78;;;7.03;77.97
34205;BME280;20471;49.680;20.074;2023-02-19T08:34:18;96638.63;;;7.00;78.11
34205;BME280;20471;49.680;20.074;2023-02-19T08:36:46;96638.39;;;6.98;77.95
34205;BME280;20471;49.680;20.074;2023-02-19T08:39:14;96636.37;;;6.97;78.15
34205;BME280;20471;49.680;20.074;2023-02-19T08:41:42;96637.69;;;6.98;78.24
34205;BME280;20471;49.680;20.074;2023-02-19T08:44:10;96632.37;;;6.99;78.30
34205;BME280;20471;49.680;20.074;2023-02-19T08:46:38;96630.88;;;6.99;78.40
34205;BME280;20471;49.680;20.074;2023-02-19T08:49:07;96635.05;;;6.99;78.32
34205;BME280;20471;49.680;20.074;2023-02-19T08:51:35;96635.92;;;6.99;78.33
34205;BME280;20471;49.680;20.074;2023-02-19T08:54:03;96637.89;;;6.99;78.20
34205;BME280;20471;49.680;20.074;2023-02-19T08:56:31;96632.49;;;6.98;78.13
34205;BME280;20471;49.680;20.074;2023-02-19T08:58:59;96635.98;;;6.93;78.03
34205;BME280;20471;49.680;20.074;2023-02-19T09:01:27;96635.13;;;6.88;78.02
34205;BME280;20471;49.680;20.074;2023-02-19T09:03:55;96636.40;;;6.82;77.96
34205;BME280;20471;49.680;20.074;2023-02-19T09:06:24;96629.59;;;6.77;78.09
34205;BME280;20471;49.680;20.074;2023-02-19T09:08:52;96633.22;;;6.76;78.41
34205;BME280;20471;49.680;20.074;2023-02-19T09:11:20;96635.77;;;6.76;78.47
34205;BME280;20471;49.680;20.074;2023-02-19T09:13:48;96635.75;;;6.72;78.27
34205;BME280;20471;49.680;20.074;2023-02-19T09:16:16;96635.61;;;6.68;78.19
34205;BME280;20471;49.680;20.074;2023-02-19T09:18:44;96631.08;;;6.63;78.11
34205;BME280;20471;49.680;20.074;2023-02-19T09:21:13;96631.83;;;6.60;78.24
34205;BME280;20471;49.680;20.074;2023-02-19T09:23:41;96628.02;;;6.58;78.28
34205;BME280;20471;49.680;20.074;2023-02-19T09:26:09;96627.39;;;6.56;78.30
34205;BME280;20471;49.680;20.074;2023-02-19T09:28:39;96626.07;;;6.55;78.25
34205;BME280;20471;49.680;20.074;2023-02-19T09:31:11;96622.64;;;6.53;78.42
34205;BME280;20471;49.680;20.074;2023-02-19T09:33:43;96625.40;;;6.52;78.34
34205;BME280;20471;49.680;20.074;2023-02-19T09:36:14;96623.39;;;6.51;78.25
34205;BME280;20471;49.680;20.074;2023-02-19T09:38:42;96621.17;;;6.51;78.29
34205;BME280;20471;49.680;20.074;2023-02-19T09:41:29;96616.81;;;6.51;78.39
34205;BME280;20471;49.680;20.074;2023-02-19T09:43:59;96615.59;;;6.54;78.36
34205;BME280;20471;49.680;20.074;2023-02-19T09:49:17;96615.77;;;6.58;78.41
34205;BME280;20471;49.680;20.074;2023-02-19T09:51:51;96620.22;;;6.59;78.43
34205;BME280;20471;49.680;20.074;2023-02-19T09:54:25;96617.74;;;6.59;78.36
34205;BME280;20471;49.680;20.074;2023-02-19T09:56:55;96616.29;;;6.56;78.26
34205;BME280;20471;49.680;20.074;2023-02-19T09:59:51;96616.13;;;6.54;78.20
34205;BME280;20471;49.680;20.074;2023-02-19T10:02:23;96617.95;;;6.49;78.15
34205;BME280;20471;49.680;20.074;2023-02-19T10:04:53;96622.89;;;6.47;78.34
34205;BME280;20471;49.680;20.074;2023-02-19T10:07:25;96625.91;;;6.47;78.39
34205;BME280;20471;49.680;20.074;2023-02-19T10:09:58;96633.05;;;6.47;78.36
34205;BME280;20471;49.680;20.074;2023-02-19T10:12:30;96634.86;;;6.47;78.40
34205;BME280;20471;49.680;20.074;2023-02-19T10:15:09;96637.17;;;6.47;78.58
34205;BME280;20471;49.680;20.074;2023-02-19T10:17:39;96642.02;;;6.47;78.71
34205;BME280;20471;49.680;20.074;2023-02-19T10:20:19;96643.20;;;6.47;78.66
34205;BME280;20471;49.680;20.074;2023-02-19T10:22:52;96643.39;;;6.45;78.35
34205;BME280;20471;49.680;20.074;2023-02-19T10:25:24;96644.11;;;6.40;78.22
34205;BME280;20471;49.680;20.074;2023-02-19T10:27:53;96644.58;;;6.37;78.18
34205;BME280;20471;49.680;20.074;2023-02-19T10:30:23;96644.62;;;6.37;78.35
34205;BME280;20471;49.680;20.074;2023-02-19T10:33:14;96641.61;;;6.38;78.36
34205;BME280;20471;49.680;20.074;2023-02-19T10:35:56;96644.09;;;6.40;78.41
34205;BME280;20471;49.680;20.074;2023-02-19T10:38:30;96644.23;;;6.41;78.44
34205;BME280;20471;49.680;20.074;2023-02-19T10:41:06;96640.23;;;6.40;78.25
34205;BME280;20471;49.680;20.074;2023-02-19T10:43:37;96640.55;;;6.39;78.19
34205;BME280;20471;49.680;20.074;2023-02-19T10:46:22;96637.33;;;6.38;78.02
34205;BME280;20471;49.680;20.074;2023-02-19T10:51:59;96637.86;;;6.30;77.98
34205;BME280;20471;49.680;20.074;2023-02-19T10:54:32;96640.42;;;6.27;78.04
34205;BME280;20471;49.680;20.074;2023-02-19T11:02:43;96640.25;;;6.29;78.24
34205;BME280;20471;49.680;20.074;2023-02-19T11:05:17;96639.88;;;6.28;78.14
34205;BME280;20471;49.680;20.074;2023-02-19T11:07:47;96643.48;;;6.26;78.23
34205;BME280;20471;49.680;20.074;2023-02-19T11:10:38;96645.80;;;6.26;78.29
34205;BME280;20471;49.680;20.074;2023-02-19T11:13:14;96645.36;;;6.22;78.22
34205;BME280;20471;49.680;20.074;2023-02-19T11:15:50;96643.48;;;6.20;78.12
34205;BME280;20471;49.680;20.074;2023-02-19T11:18:30;96644.98;;;6.18;78.30
34205;BME280;20471;49.680;20.074;2023-02-19T11:21:03;96641.63;;;6.18;78.19
34205;BME280;20471;49.680;20.074;2023-02-19T11:23:36;96649.14;;;6.18;78.43
34205;BME280;20471;49.680;20.074;2023-02-19T11:26:16;96653.10;;;6.17;78.45
34205;BME280;20471;49.680;20.074;2023-02-19T11:28:55;96656.73;;;6.17;78.51
34205;BME280;20471;49.680;20.074;2023-02-19T11:31:29;96658.80;;;6.15;78.71
34205;BME280;20471;49.680;20.074;2023-02-19T11:34:21;96663.56;;;6.12;78.88
34205;BME280;20471;49.680;20.074;2023-02-19T11:37:15;96669.30;;;6.07;78.98
34205;BME280;20471;49.680;20.074;2023-02-19T11:39:46;96672.52;;;6.06;79.11
34205;BME280;20471;49.680;20.074;2023-02-19T11:50:28;96675.77;;;6.05;79.54
34205;BME280;20471;49.680;20.074;2023-02-19T11:56:25;96683.48;;;6.01;79.67
34205;BME280;20471;49.680;20.074;2023-02-19T11:59:06;96684.95;;;5.91;79.57
34205;BME280;20471;49.680;20.074;2023-02-19T12:16:12;96731.02;;;5.83;80.03
34205;BME280;20471;49.680;20.074;2023-02-19T12:24:41;96736.41;;;5.48;79.80
34205;BME280;20471;49.680;20.074;2023-02-19T12:43:25;96760.29;;;5.31;80.42
34205;BME280;20471;49.680;20.074;2023-02-19T12:46:15;96761.06;;;5.38;80.51
34205;BME280;20471;49.680;20.074;2023-02-19T12:48:58;96758.83;;;5.43;80.54
34205;BME280;20471;49.680;20.074;2023-02-19T12:57:02;96763.81;;;5.55;80.75
34205;BME280;20471;49.680;20.074;2023-02-19T13:02:56;96764.80;;;5.56;80.76
34205;BME280;20471;49.680;20.074;2023-02-19T13:13:44;96776.10;;;5.55;80.83
34205;BME280;20471;49.680;20.074;2023-02-19T13:16:36;96785.40;;;5.53;80.69
34205;BME280;20471;49.680;20.074;2023-02-19T13:19:07;96789.95;;;5.47;80.60
34205;BME280;20471;49.680;20.074;2023-02-19T13:21:37;96786.03;;;5.35;80.59
34205;BME280;20471;49.680;20.074;2023-02-19T13:24:35;96789.84;;;5.24;80.55
34205;BME280;20471;49.680;20.074;2023-02-19T13:33:04;96814.56;;;5.09;80.88
34205;BME280;20471;49.680;20.074;2023-02-19T13:36:18;96815.16;;;5.04;80.92
34205;BME280;20471;49.680;20.074;2023-02-19T13:38:50;96819.80;;;5.04;80.83
34205;BME280;20471;49.680;20.074;2023-02-19T13:41:30;96820.48;;;5.06;80.86
34205;BME280;20471;49.680;20.074;2023-02-19T13:44:06;96823.22;;;5.01;80.81
34205;BME280;20471;49.680;20.074;2023-02-19T13:46:44;96828.48;;;4.97;80.82
34205;BME280;20471;49.680;20.074;2023-02-19T13:54:50;96843.61;;;4.88;80.80
34205;BME280;20471;49.680;20.074;2023-02-19T13:57:27;96849.04;;;4.84;80.66
34205;BME280;20471;49.680;20.074;2023-02-19T13:59:57;96855.94;;;4.83;80.87
34205;BME280;20471;49.680;20.074;2023-02-19T14:02:29;96858.58;;;4.76;80.77
34205;BME280;20471;49.680;20.074;2023-02-19T14:05:10;96869.42;;;4.65;80.62
34205;BME280;20471;49.680;20.074;2023-02-19T14:07:52;96879.52;;;4.50;80.74
34205;BME280;20471;49.680;20.074;2023-02-19T14:10:54;96886.58;;;4.36;80.83
34205;BME280;20471;49.680;20.074;2023-02-19T14:13:57;96891.73;;;4.22;80.74
34205;BME280;20471;49.680;20.074;2023-02-19T14:19:13;96897.12;;;4.06;80.86
34205;BME280;20471;49.680;20.074;2023-02-19T14:21:43;96899.95;;;4.08;80.82
34205;BME280;20471;49.680;20.074;2023-02-19T14:24:13;96902.98;;;4.03;80.68
34205;BME280;20471;49.680;20.074;2023-02-19T14:26:44;96909.64;;;4.01;80.75
34205;BME280;20471;49.680;20.074;2023-02-19T14:29:15;96911.58;;;4.01;80.67
34205;BME280;20471;49.680;20.074;2023-02-19T14:32:04;96911.05;;;3.97;80.77
34205;BME280;20471;49.680;20.074;2023-02-19T14:34:34;96912.69;;;3.94;80.84
34205;BME280;20471;49.680;20.074;2023-02-19T14:37:03;96913.13;;;3.93;80.84
34205;BME280;20471;49.680;20.074;2023-02-19T14:39:36;96920.52;;;3.93;80.77
34205;BME280;20471;49.680;20.074;2023-02-19T14:42:16;96934.20;;;3.91;80.90
34205;BME280;20471;49.680;20.074;2023-02-19T14:44:54;96933.99;;;3.86;81.00
34205;BME280;20471;49.680;20.074;2023-02-19T14:47:27;96938.80;;;3.81;81.16
34205;BME280;20471;49.680;20.074;2023-02-19T14:50:12;96944.39;;;3.79;81.29
34205;BME280;20471;49.680;20.074;2023-02-19T14:52:48;96948.84;;;3.84;81.40
34205;BME280;20471;49.680;20.074;2023-02-19T14:55:39;96951.96;;;3.87;81.38
34205;BME280;20471;49.680;20.074;2023-02-19T14:58:13;96960.09;;;3.86;81.35
34205;BME280;20471;49.680;20.074;2023-02-19T15:00:43;96969.42;;;3.87;81.37
34205;BME280;20471;49.680;20.074;2023-02-19T15:03:41;96980.60;;;3.86;81.34
34205;BME280;20471;49.680;20.074;2023-02-19T15:06:12;96993.08;;;3.80;81.33
34205;BME280;20471;49.680;20.074;2023-02-19T15:08:51;96997.42;;;3.75;81.35
34205;BME280;20471;49.680;20.074;2023-02-19T15:11:23;97005.74;;;3.65;81.12
34205;BME280;20471;49.680;20.074;2023-02-19T15:13:56;97018.70;;;3.54;80.88
34205;BME280;20471;49.680;20.074;2023-02-19T15:16:46;97022.04;;;3.41;80.54
34205;BME280;20471;49.680;20.074;2023-02-19T15:19:18;97024.23;;;3.26;80.52
34205;BME280;20471;49.680;20.074;2023-02-19T15:21:48;97025.65;;;3.21;80.62